sensor_id;sensor_type;location;lat;lon;timestamp;P1;durP1;ratioP1;P2;durP2;ratioP2
83688;SDS011;74527;43.224;0.108;2024-02-14T00:02:15;9.75;;;4.68;;
83688;SDS011;74527;43.224;0.108;2024-02-14T00:04:42;6.22;;;3.70;;
83688;SDS011;74527;43.224;0.108;2024-02-14T00:07:08;5.82;;;3.28;;
83688;SDS011;74527;43.224;0.108;2024-02-14T00:09:34;5.53;;;3.10;;
83688;SDS011;74527;43.224;0.108;2024-02-14T00:12:00;4.20;;;2.88;;
83688;SDS011;74527;43.224;0.108;2024-02-14T00:14:26;6.38;;;3.30;;
83688;SDS011;74527;43.224;0.108;2024-02-14T00:16:52;4.40;;;3.00;;
83688;SDS011;74527;43.224;0.108;2024-02-14T00:19:18;3.47;;;2.67;;
83688;SDS011;74527;43.224;0.108;2024-02-14T00:21:44;6.30;;;2.75;;
83688;SDS011;74527;43.224;0.108;2024-02-14T00:24:10;7.35;;;2.58;;
83688;SDS011;74527;43.224;0.108;2024-02-14T00:26:36;9.27;;;4.10;;
83688;SDS011;74527;43.224;0.108;2024-02-14T00:29:04;9.93;;;5.50;;
83688;SDS011;74527;43.224;0.108;2024-02-14T00:31:30;7.88;;;4.60;;
83688;SDS011;74527;43.224;0.108;2024-02-14T00:33:56;6.65;;;4.18;;
83688;SDS011;74527;43.224;0.108;2024-02-14T00:36:22;8.95;;;4.97;;
83688;SDS011;74527;43.224;0.108;2024-02-14T00:38:48;10.52;;;4.80;;
83688;SDS011;74527;43.224;0.108;2024-02-14T00:41:14;9.10;;;4.22;;
83688;SDS011;74527;43.224;0.108;2024-02-14T00:43:40;6.88;;;3.95;;
83688;SDS011;74527;43.224;0.108;2024-02-14T00:46:06;12.13;;;4.13;;
83688;SDS011;74527;43.224;0.108;2024-02-14T00:48:32;5.82;;;3.78;;
83688;SDS011;74527;43.224;0.108;2024-02-14T00:50:58;8.05;;;3.92;;
83688;SDS011;74527;43.224;0.108;2024-02-14T00:53:25;10.38;;;4.35;;
83688;SDS011;74527;43.224;0.108;2024-02-14T00:55:51;9.07;;;4.90;;
83688;SDS011;74527;43.224;0.108;2024-02-14T00:58:17;7.60;;;4.90;;
83688;SDS011;74527;43.224;0.108;2024-02-14T01:00:44;7.32;;;4.32;;
83688;SDS011;74527;43.224;0.108;2024-02-14T01:03:10;12.13;;;3.75;;
83688;SDS011;74527;43.224;0.108;2024-02-14T01:05:38;14.45;;;4.53;;
83688;SDS011;74527;43.224;0.108;2024-02-14T01:08:04;7.50;;;3.85;;
83688;SDS011;74527;43.224;0.108;2024-02-14T01:10:30;7.38;;;3.70;;
83688;SDS011;74527;43.224;0.108;2024-02-14T01:12:56;11.35;;;3.95;;
83688;SDS011;74527;43.224;0.108;2024-02-14T01:15:23;4.95;;;3.40;;
83688;SDS011;74527;43.224;0.108;2024-02-14T01:17:49;7.38;;;3.47;;
83688;SDS011;74527;43.224;0.108;2024-02-14T01:20:15;11.00;;;3.50;;
83688;SDS011;74527;43.224;0.108;2024-02-14T01:22:41;3.88;;;2.78;;
83688;SDS011;74527;43.224;0.108;2024-02-14T01:25:07;4.78;;;2.53;;
83688;SDS011;74527;43.224;0.108;2024-02-14T01:27:35;6.07;;;2.72;;
83688;SDS011;74527;43.224;0.108;2024-02-14T01:30:01;4.07;;;2.50;;
83688;SDS011;74527;43.224;0.108;2024-02-14T01:32:27;2.50;;;1.83;;
83688;SDS011;74527;43.224;0.108;2024-02-14T01:34:54;3.85;;;2.28;;
83688;SDS011;74527;43.224;0.108;2024-02-14T01:37:20;7.85;;;2.83;;
83688;SDS011;74527;43.224;0.108;2024-02-14T01:39:46;4.38;;;2.47;;
83688;SDS011;74527;43.224;0.108;2024-02-14T01:42:12;4.35;;;2.42;;
83688;SDS011;74527;43.224;0.108;2024-02-14T01:44:39;14.68;;;2.90;;
83688;SDS011;74527;43.224;0.108;2024-02-14T01:47:05;6.72;;;3.38;;
83688;SDS011;74527;43.224;0.108;2024-02-14T01:49:32;5.07;;;2.92;;
83688;SDS011;74527;43.224;0.108;2024-02-14T01:51:59;8.77;;;3.22;;
83688;SDS011;74527;43.224;0.108;2024-02-14T01:54:25;4.30;;;2.72;;
83688;SDS011;74527;43.224;0.108;2024-02-14T01:56:52;7.63;;;2.90;;
83688;SDS011;74527;43.224;0.108;2024-02-14T01:59:18;7.47;;;2.90;;
83688;SDS011;74527;43.224;0.108;2024-02-14T02:01:45;12.05;;;3.47;;
83688;SDS011;74527;43.224;0.108;2024-02-14T02:04:11;5.57;;;2.60;;
83688;SDS011;74527;43.224;0.108;2024-02-14T02:06:37;7.85;;;3.20;;
83688;SDS011;74527;43.224;0.108;2024-02-14T02:11:42;6.63;;;3.28;;
83688;SDS011;74527;43.224;0.108;2024-02-14T02:14:08;5.85;;;2.20;;
83688;SDS011;74527;43.224;0.108;2024-02-14T02:16:34;3.13;;;1.63;;
83688;SDS011;74527;43.224;0.108;2024-02-14T02:19:00;3.28;;;1.90;;
83688;SDS011;74527;43.224;0.108;2024-02-14T02:21:26;2.22;;;1.73;;
83688;SDS011;74527;43.224;0.108;2024-02-14T02:23:52;2.00;;;1.42;;
83688;SDS011;74527;43.224;0.108;2024-02-14T02:26:18;1.27;;;1.02;;
83688;SDS011;74527;43.224;0.108;2024-02-14T02:28:44;4.00;;;1.20;;
83688;SDS011;74527;43.224;0.108;2024-02-14T02:31:11;1.38;;;1.10;;
83688;SDS011;74527;43.224;0.108;2024-02-14T02:33:37;3.50;;;1.13;;
83688;SDS011;74527;43.224;0.108;2024-02-14T02:36:03;4.15;;;1.13;;
83688;SDS011;74527;43.224;0.108;2024-02-14T02:38:29;2.10;;;0.95;;
83688;SDS011;74527;43.224;0.108;2024-02-14T02:40:55;2.63;;;1.10;;
83688;SDS011;74527;43.224;0.108;2024-02-14T02:43:21;2.70;;;1.20;;
83688;SDS011;74527;43.224;0.108;2024-02-14T02:45:47;3.40;;;1.20;;
83688;SDS011;74527;43.224;0.108;2024-02-14T02:48:13;5.00;;;1.10;;
83688;SDS011;74527;43.224;0.108;2024-02-14T02:50:39;2.70;;;1.23;;
83688;SDS011;74527;43.224;0.108;2024-02-14T02:53:05;2.72;;;1.25;;
83688;SDS011;74527;43.224;0.108;2024-02-14T02:55:31;5.30;;;1.13;;
83688;SDS011;74527;43.224;0.108;2024-02-14T02:57:58;2.65;;;1.00;;
83688;SDS011;74527;43.224;0.108;2024-02-14T03:00:24;5.68;;;1.30;;
83688;SDS011;74527;43.224;0.108;2024-02-14T03:02:50;3.78;;;1.27;;
83688;SDS011;74527;43.224;0.108;2024-02-14T03:05:16;2.45;;;1.35;;
83688;SDS011;74527;43.224;0.108;2024-02-14T03:07:43;3.58;;;1.00;;
83688;SDS011;74527;43.224;0.108;2024-02-14T03:10:10;0.95;;;0.95;;
83688;SDS011;74527;43.224;0.108;2024-02-14T03:12:39;0.73;;;0.73;;
83688;SDS011;74527;43.224;0.108;2024-02-14T03:15:06;1.50;;;0.98;;
83688;SDS011;74527;43.224;0.108;2024-02-14T03:17:35;5.03;;;1.17;;
83688;SDS011;74527;43.224;0.108;2024-02-14T03:20:01;4.75;;;1.23;;
83688;SDS011;74527;43.224;0.108;2024-02-14T03:22:29;2.28;;;1.17;;
83688;SDS011;74527;43.224;0.108;2024-02-14T03:24:55;1.02;;;0.80;;
83688;SDS011;74527;43.224;0.108;2024-02-14T03:27:23;2.75;;;1.10;;
83688;SDS011;74527;43.224;0.108;2024-02-14T03:29:51;3.10;;;1.52;;
83688;SDS011;74527;43.224;0.108;2024-02-14T03:32:17;3.58;;;2.45;;
83688;SDS011;74527;43.224;0.108;2024-02-14T03:34:43;4.75;;;2.67;;
83688;SDS011;74527;43.224;0.108;2024-02-14T03:37:10;6.45;;;2.28;;
83688;SDS011;74527;43.224;0.108;2024-02-14T03:39:36;3.28;;;1.10;;
83688;SDS011;74527;43.224;0.108;2024-02-14T03:42:02;2.25;;;1.30;;
83688;SDS011;74527;43.224;0.108;2024-02-14T03:44:32;4.13;;;1.48;;
83688;SDS011;74527;43.224;0.108;2024-02-14T03:46:58;2.75;;;1.77;;
83688;SDS011;74527;43.224;0.108;2024-02-14T03:49:25;2.72;;;1.58;;
83688;SDS011;74527;43.224;0.108;2024-02-14T03:51:51;3.38;;;1.38;;
83688;SDS011;74527;43.224;0.108;2024-02-14T03:54:19;3.38;;;1.23;;
83688;SDS011;74527;43.224;0.108;2024-02-14T03:56:45;2.97;;;1.63;;
83688;SDS011;74527;43.224;0.108;2024-02-14T03:59:11;4.55;;;1.77;;
83688;SDS011;74527;43.224;0.108;2024-02-14T04:01:43;8.38;;;1.90;;
83688;SDS011;74527;43.224;0.108;2024-02-14T04:04:09;4.18;;;1.70;;
83688;SDS011;74527;43.224;0.108;2024-02-14T04:06:35;4.47;;;1.63;;
83688;SDS011;74527;43.224;0.108;2024-02-14T04:09:02;4.65;;;2.10;;
83688;SDS011;74527;43.224;0.108;2024-02-14T04:11:28;3.03;;;1.80;;
83688;SDS011;74527;43.224;0.108;2024-02-14T04:13:54;3.60;;;1.58;;
83688;SDS011;74527;43.224;0.108;2024-02-14T04:16:20;2.40;;;1.52;;
83688;SDS011;74527;43.224;0.108;2024-02-14T04:18:49;3.58;;;0.98;;
83688;SDS011;74527;43.224;0.108;2024-02-14T04:21:15;1.02;;;0.60;;
83688;SDS011;74527;43.224;0.108;2024-02-14T04:23:41;3.42;;;0.73;;
83688;SDS011;74527;43.224;0.108;2024-02-14T04:26:07;1.90;;;1.25;;
83688;SDS011;74527;43.224;0.108;2024-02-14T04:28:33;0.77;;;0.35;;
83688;SDS011;74527;43.224;0.108;2024-02-14T04:30:59;0.60;;;0.60;;
83688;SDS011;74527;43.224;0.108;2024-02-14T04:33:25;2.80;;;1.00;;
83688;SDS011;74527;43.224;0.108;2024-02-14T04:35:51;2.72;;;0.70;;
83688;SDS011;74527;43.224;0.108;2024-02-14T04:38:17;2.08;;;0.70;;
83688;SDS011;74527;43.224;0.108;2024-02-14T04:40:44;3.20;;;0.80;;
83688;SDS011;74527;43.224;0.108;2024-02-14T04:43:10;2.55;;;0.85;;
83688;SDS011;74527;43.224;0.108;2024-02-14T04:45:37;2.70;;;1.08;;
83688;SDS011;74527;43.224;0.108;2024-02-14T04:48:03;2.10;;;1.10;;
83688;SDS011;74527;43.224;0.108;2024-02-14T04:50:29;4.97;;;1.20;;
83688;SDS011;74527;43.224;0.108;2024-02-14T04:52:56;0.98;;;0.95;;
83688;SDS011;74527;43.224;0.108;2024-02-14T04:55:22;1.35;;;1.25;;
83688;SDS011;74527;43.224;0.108;2024-02-14T04:57:48;2.72;;;1.20;;
83688;SDS011;74527;43.224;0.108;2024-02-14T05:00:14;1.17;;;1.08;;
83688;SDS011;74527;43.224;0.108;2024-02-14T05:02:40;3.53;;;1.45;;
83688;SDS011;74527;43.224;0.108;2024-02-14T05:05:06;2.55;;;1.48;;
83688;SDS011;74527;43.224;0.108;2024-02-14T05:07:33;3.72;;;2.00;;
83688;SDS011;74527;43.224;0.108;2024-02-14T05:09:59;3.50;;;1.70;;
83688;SDS011;74527;43.224;0.108;2024-02-14T05:12:26;4.72;;;1.45;;
83688;SDS011;74527;43.224;0.108;2024-02-14T05:14:52;4.65;;;2.00;;
83688;SDS011;74527;43.224;0.108;2024-02-14T05:17:18;5.22;;;2.55;;
83688;SDS011;74527;43.224;0.108;2024-02-14T05:19:45;6.28;;;3.00;;
83688;SDS011;74527;43.224;0.108;2024-02-14T05:22:11;11.88;;;4.18;;
83688;SDS011;74527;43.224;0.108;2024-02-14T05:24:38;4.25;;;3.00;;
83688;SDS011;74527;43.224;0.108;2024-02-14T05:27:04;6.22;;;2.45;;
83688;SDS011;74527;43.224;0.108;2024-02-14T05:29:30;6.18;;;1.90;;
83688;SDS011;74527;43.224;0.108;2024-02-14T05:31:56;8.93;;;6.45;;
83688;SDS011;74527;43.224;0.108;2024-02-14T05:34:22;16.15;;;11.68;;
83688;SDS011;74527;43.224;0.108;2024-02-14T05:36:49;6.57;;;5.85;;
83688;SDS011;74527;43.224;0.108;2024-02-14T05:39:15;5.13;;;2.42;;
83688;SDS011;74527;43.224;0.108;2024-02-14T05:41:42;3.45;;;2.08;;
83688;SDS011;74527;43.224;0.108;2024-02-14T05:44:08;4.05;;;1.70;;
83688;SDS011;74527;43.224;0.108;2024-02-14T05:46:34;3.15;;;1.92;;
83688;SDS011;74527;43.224;0.108;2024-02-14T05:49:00;2.70;;;1.75;;
83688;SDS011;74527;43.224;0.108;2024-02-14T05:51:26;2.67;;;1.38;;
83688;SDS011;74527;43.224;0.108;2024-02-14T05:53:52;1.73;;;1.38;;
83688;SDS011;74527;43.224;0.108;2024-02-14T05:56:19;5.97;;;1.65;;
83688;SDS011;74527;43.224;0.108;2024-02-14T05:58:45;3.45;;;1.38;;
83688;SDS011;74527;43.224;0.108;2024-02-14T06:01:11;2.63;;;1.45;;
83688;SDS011;74527;43.224;0.108;2024-02-14T06:03:37;3.53;;;1.55;;
83688;SDS011;74527;43.224;0.108;2024-02-14T06:06:03;4.13;;;1.30;;
83688;SDS011;74527;43.224;0.108;2024-02-14T06:08:29;1.77;;;1.38;;
83688;SDS011;74527;43.224;0.108;2024-02-14T06:10:55;1.30;;;1.05;;
83688;SDS011;74527;43.224;0.108;2024-02-14T06:13:21;1.73;;;1.02;;
83688;SDS011;74527;43.224;0.108;2024-02-14T06:15:47;2.83;;;1.23;;
83688;SDS011;74527;43.224;0.108;2024-02-14T06:18:13;2.95;;;1.20;;
83688;SDS011;74527;43.224;0.108;2024-02-14T06:20:39;2.15;;;1.20;;
83688;SDS011;74527;43.224;0.108;2024-02-14T06:23:05;3.80;;;1.30;;
83688;SDS011;74527;43.224;0.108;2024-02-14T06:25:32;1.83;;;1.58;;
83688;SDS011;74527;43.224;0.108;2024-02-14T06:27:58;4.05;;;1.27;;
83688;SDS011;74527;43.224;0.108;2024-02-14T06:30:24;1.63;;;1.02;;
83688;SDS011;74527;43.224;0.108;2024-02-14T06:32:50;7.40;;;0.98;;
83688;SDS011;74527;43.224;0.108;2024-02-14T06:35:16;5.93;;;2.00;;
83688;SDS011;74527;43.224;0.108;2024-02-14T06:37:44;2.25;;;1.52;;
83688;SDS011;74527;43.224;0.108;2024-02-14T06:40:10;6.15;;;1.73;;
83688;SDS011;74527;43.224;0.108;2024-02-14T06:42:36;2.35;;;1.70;;
83688;SDS011;74527;43.224;0.108;2024-02-14T06:45:02;3.63;;;1.73;;
83688;SDS011;74527;43.224;0.108;2024-02-14T06:47:28;2.35;;;1.40;;
83688;SDS011;74527;43.224;0.108;2024-02-14T06:49:58;2.33;;;2.13;;
83688;SDS011;74527;43.224;0.108;2024-02-14T06:52:24;3.55;;;1.92;;
83688;SDS011;74527;43.224;0.108;2024-02-14T06:54:50;3.08;;;1.83;;
83688;SDS011;74527;43.224;0.108;2024-02-14T06:57:16;3.72;;;1.90;;
83688;SDS011;74527;43.224;0.108;2024-02-14T06:59:42;5.07;;;2.78;;
83688;SDS011;74527;43.224;0.108;2024-02-14T07:02:09;5.05;;;2.42;;
83688;SDS011;74527;43.224;0.108;2024-02-14T07:04:35;11.40;;;2.40;;
83688;SDS011;74527;43.224;0.108;2024-02-14T07:07:02;4.07;;;2.03;;
83688;SDS011;74527;43.224;0.108;2024-02-14T07:09:28;6.32;;;2.03;;
83688;SDS011;74527;43.224;0.108;2024-02-14T07:11:54;3.95;;;2.28;;
83688;SDS011;74527;43.224;0.108;2024-02-14T07:14:23;2.83;;;1.88;;
83688;SDS011;74527;43.224;0.108;2024-02-14T07:16:49;3.47;;;1.75;;
83688;SDS011;74527;43.224;0.108;2024-02-14T07:19:16;3.92;;;1.55;;
83688;SDS011;74527;43.224;0.108;2024-02-14T07:21:42;3.03;;;1.30;;
83688;SDS011;74527;43.224;0.108;2024-02-14T07:24:09;5.07;;;1.65;;
83688;SDS011;74527;43.224;0.108;2024-02-14T07:26:35;2.77;;;1.20;;
83688;SDS011;74527;43.224;0.108;2024-02-14T07:29:01;1.60;;;1.13;;
83688;SDS011;74527;43.224;0.108;2024-02-14T07:31:31;14.13;;;5.63;;
83688;SDS011;74527;43.224;0.108;2024-02-14T07:33:59;8.68;;;4.07;;
83688;SDS011;74527;43.224;0.108;2024-02-14T07:36:25;11.20;;;6.00;;
83688;SDS011;74527;43.224;0.108;2024-02-14T07:38:51;4.80;;;3.25;;
83688;SDS011;74527;43.224;0.108;2024-02-14T07:41:17;4.82;;;2.78;;
83688;SDS011;74527;43.224;0.108;2024-02-14T07:43:43;3.80;;;2.83;;
83688;SDS011;74527;43.224;0.108;2024-02-14T07:46:09;5.75;;;2.20;;
83688;SDS011;74527;43.224;0.108;2024-02-14T07:48:37;2.83;;;1.92;;
83688;SDS011;74527;43.224;0.108;2024-02-14T07:51:06;8.82;;;2.08;;
83688;SDS011;74527;43.224;0.108;2024-02-14T07:53:33;2.08;;;1.40;;
83688;SDS011;74527;43.224;0.108;2024-02-14T07:55:59;5.50;;;2.40;;
83688;SDS011;74527;43.224;0.108;2024-02-14T07:58:25;8.23;;;2.03;;
83688;SDS011;74527;43.224;0.108;2024-02-14T08:00:51;7.97;;;2.03;;
83688;SDS011;74527;43.224;0.108;2024-02-14T08:03:17;3.35;;;1.40;;
83688;SDS011;74527;43.224;0.108;2024-02-14T08:05:43;5.28;;;2.75;;
83688;SDS011;74527;43.224;0.108;2024-02-14T08:08:10;5.10;;;2.03;;
83688;SDS011;74527;43.224;0.108;2024-02-14T08:10:36;1.92;;;1.70;;
83688;SDS011;74527;43.224;0.108;2024-02-14T08:13:02;2.42;;;1.70;;
83688;SDS011;74527;43.224;0.108;2024-02-14T08:15:29;2.65;;;1.35;;
83688;SDS011;74527;43.224;0.108;2024-02-14T08:17:55;4.68;;;1.50;;
83688;SDS011;74527;43.224;0.108;2024-02-14T08:20:21;1.08;;;0.90;;
83688;SDS011;74527;43.224;0.108;2024-02-14T08:22:48;3.20;;;1.40;;
83688;SDS011;74527;43.224;0.108;2024-02-14T08:25:14;5.03;;;1.33;;
83688;SDS011;74527;43.224;0.108;2024-02-14T08:27:40;2.78;;;1.50;;
83688;SDS011;74527;43.224;0.108;2024-02-14T08:30:07;3.67;;;1.20;;
83688;SDS011;74527;43.224;0.108;2024-02-14T08:32:34;6.35;;;1.50;;
83688;SDS011;74527;43.224;0.108;2024-02-14T08:35:00;5.60;;;2.13;;
83688;SDS011;74527;43.224;0.108;2024-02-14T08:37:26;6.35;;;2.05;;
83688;SDS011;74527;43.224;0.108;2024-02-14T08:39:52;4.43;;;1.67;;
83688;SDS011;74527;43.224;0.108;2024-02-14T08:42:19;4.65;;;1.80;;
83688;SDS011;74527;43.224;0.108;2024-02-14T08:44:45;3.33;;;2.40;;
83688;SDS011;74527;43.224;0.108;2024-02-14T08:47:11;5.32;;;3.20;;
83688;SDS011;74527;43.224;0.108;2024-02-14T08:49:40;4.00;;;3.20;;
83688;SDS011;74527;43.224;0.108;2024-02-14T08:52:07;9.50;;;2.85;;
83688;SDS011;74527;43.224;0.108;2024-02-14T08:54:33;10.30;;;3.42;;
83688;SDS011;74527;43.224;0.108;2024-02-14T08:56:59;6.75;;;3.22;;
83688;SDS011;74527;43.224;0.108;2024-02-14T08:59:26;6.68;;;2.60;;
83688;SDS011;74527;43.224;0.108;2024-02-14T09:01:52;5.00;;;1.98;;
83688;SDS011;74527;43.224;0.108;2024-02-14T09:04:18;4.60;;;2.63;;
83688;SDS011;74527;43.224;0.108;2024-02-14T09:06:44;3.40;;;1.75;;
83688;SDS011;74527;43.224;0.108;2024-02-14T09:09:10;3.95;;;2.28;;
83688;SDS011;74527;43.224;0.108;2024-02-14T09:11:36;4.45;;;1.88;;
83688;SDS011;74527;43.224;0.108;2024-02-14T09:14:03;4.95;;;2.03;;
83688;SDS011;74527;43.224;0.108;2024-02-14T09:16:34;5.53;;;1.80;;
83688;SDS011;74527;43.224;0.108;2024-02-14T09:19:00;1.67;;;1.52;;
83688;SDS011;74527;43.224;0.108;2024-02-14T09:21:27;3.22;;;1.48;;
83688;SDS011;74527;43.224;0.108;2024-02-14T09:23:53;1.88;;;1.30;;
83688;SDS011;74527;43.224;0.108;2024-02-14T09:26:19;2.30;;;1.25;;
83688;SDS011;74527;43.224;0.108;2024-02-14T09:28:45;3.47;;;1.63;;
83688;SDS011;74527;43.224;0.108;2024-02-14T09:31:12;5.70;;;1.67;;
83688;SDS011;74527;43.224;0.108;2024-02-14T09:33:38;1.48;;;1.17;;
83688;SDS011;74527;43.224;0.108;2024-02-14T09:36:05;1.65;;;1.40;;
83688;SDS011;74527;43.224;0.108;2024-02-14T09:38:31;2.00;;;1.35;;
83688;SDS011;74527;43.224;0.108;2024-02-14T09:40:58;2.20;;;0.73;;
83688;SDS011;74527;43.224;0.108;2024-02-14T09:43:31;4.55;;;1.02;;
83688;SDS011;74527;43.224;0.108;2024-02-14T09:45:58;7.35;;;1.40;;
83688;SDS011;74527;43.224;0.108;2024-02-14T09:48:28;0.80;;;0.80;;
83688;SDS011;74527;43.224;0.108;2024-02-14T09:50:55;1.70;;;1.38;;
83688;SDS011;74527;43.224;0.108;2024-02-14T09:53:22;11.65;;;1.25;;
83688;SDS011;74527;43.224;0.108;2024-02-14T09:55:49;7.72;;;1.13;;
83688;SDS011;74527;43.224;0.108;2024-02-14T09:58:16;2.85;;;0.98;;
83688;SDS011;74527;43.224;0.108;2024-02-14T10:00:42;2.65;;;1.15;;
83688;SDS011;74527;43.224;0.108;2024-02-14T10:03:08;2.85;;;1.00;;
83688;SDS011;74527;43.224;0.108;2024-02-14T10:05:36;5.63;;;0.85;;
83688;SDS011;74527;43.224;0.108;2024-02-14T10:08:02;1.05;;;0.88;;
83688;SDS011;74527;43.224;0.108;2024-02-14T10:10:29;5.47;;;0.90;;
83688;SDS011;74527;43.224;0.108;2024-02-14T10:15:23;1.48;;;1.02;;
83688;SDS011;74527;43.224;0.108;2024-02-14T10:17:50;5.57;;;1.48;;
83688;SDS011;74527;43.224;0.108;2024-02-14T10:20:16;30.55;;;11.70;;
83688;SDS011;74527;43.224;0.108;2024-02-14T10:22:43;23.60;;;12.65;;
83688;SDS011;74527;43.224;0.108;2024-02-14T10:25:09;20.50;;;8.38;;
83688;SDS011;74527;43.224;0.108;2024-02-14T10:27:39;10.50;;;5.35;;
83688;SDS011;74527;43.224;0.108;2024-02-14T10:30:06;7.65;;;1.90;;
83688;SDS011;74527;43.224;0.108;2024-02-14T10:32:35;1.70;;;1.60;;
83688;SDS011;74527;43.224;0.108;2024-02-14T10:35:13;0.80;;;0.80;;
83688;SDS011;74527;43.224;0.108;2024-02-14T10:37:40;3.40;;;0.50;;
83688;SDS011;74527;43.224;0.108;2024-02-14T10:40:06;1.00;;;1.00;;
83688;SDS011;74527;43.224;0.108;2024-02-14T10:42:33;4.05;;;2.30;;
83688;SDS011;74527;43.224;0.108;2024-02-14T10:45:00;1.80;;;1.20;;
83688;SDS011;74527;43.224;0.108;2024-02-14T10:47:30;2.67;;;2.13;;
83688;SDS011;74527;43.224;0.108;2024-02-14T10:49:58;1.95;;;1.30;;
83688;SDS011;74527;43.224;0.108;2024-02-14T10:52:27;2.08;;;0.90;;
83688;SDS011;74527;43.224;0.108;2024-02-14T10:54:56;1.60;;;0.85;;
83688;SDS011;74527;43.224;0.108;2024-02-14T10:57:23;1.65;;;1.55;;
83688;SDS011;74527;43.224;0.108;2024-02-14T10:59:50;4.22;;;1.10;;
83688;SDS011;74527;43.224;0.108;2024-02-14T11:02:17;2.30;;;0.73;;
83688;SDS011;74527;43.224;0.108;2024-02-14T11:04:43;4.30;;;1.20;;
83688;SDS011;74527;43.224;0.108;2024-02-14T11:07:11;0.73;;;0.60;;
83688;SDS011;74527;43.224;0.108;2024-02-14T11:09:38;2.28;;;0.68;;
83688;SDS011;74527;43.224;0.108;2024-02-14T11:12:07;1.02;;;0.57;;
83688;SDS011;74527;43.224;0.108;2024-02-14T11:14:34;2.45;;;0.70;;
83688;SDS011;74527;43.224;0.108;2024-02-14T11:17:02;2.35;;;0.82;;
83688;SDS011;74527;43.224;0.108;2024-02-14T11:19:32;2.50;;;1.80;;
83688;SDS011;74527;43.224;0.108;2024-02-14T11:22:09;0.88;;;0.88;;
83688;SDS011;74527;43.224;0.108;2024-02-14T11:24:36;2.88;;;0.50;;
83688;SDS011;74527;43.224;0.108;2024-02-14T11:27:02;1.20;;;0.65;;
83688;SDS011;74527;43.224;0.108;2024-02-14T11:29:28;1.63;;;0.60;;
83688;SDS011;74527;43.224;0.108;2024-02-14T11:31:58;2.78;;;0.70;;
83688;SDS011;74527;43.224;0.108;2024-02-14T11:34:25;0.93;;;0.60;;
83688;SDS011;74527;43.224;0.108;2024-02-14T11:36:51;0.40;;;0.40;;
83688;SDS011;74527;43.224;0.108;2024-02-14T11:39:17;2.47;;;0.65;;
83688;SDS011;74527;43.224;0.108;2024-02-14T11:41:43;0.85;;;0.35;;
83688;SDS011;74527;43.224;0.108;2024-02-14T11:44:09;0.98;;;0.60;;
83688;SDS011;74527;43.224;0.108;2024-02-14T11:46:37;1.10;;;0.73;;
83688;SDS011;74527;43.224;0.108;2024-02-14T11:49:04;0.70;;;0.60;;
83688;SDS011;74527;43.224;0.108;2024-02-14T11:51:31;2.17;;;0.88;;
83688;SDS011;74527;43.224;0.108;2024-02-14T11:54:00;1.33;;;0.70;;
83688;SDS011;74527;43.224;0.108;2024-02-14T11:56:38;3.50;;;0.60;;
83688;SDS011;74527;43.224;0.108;2024-02-14T11:59:05;0.77;;;0.50;;
83688;SDS011;74527;43.224;0.108;2024-02-14T12:01:33;0.50;;;0.50;;
83688;SDS011;74527;43.224;0.108;2024-02-14T12:03:59;1.33;;;0.80;;
83688;SDS011;74527;43.224;0.108;2024-02-14T12:06:26;6.72;;;0.75;;
83688;SDS011;74527;43.224;0.108;2024-02-14T12:08:52;2.08;;;0.63;;
83688;SDS011;74527;43.224;0.108;2024-02-14T12:11:19;1.92;;;0.40;;
83688;SDS011;74527;43.224;0.108;2024-02-14T12:13:49;0.85;;;0.55;;
83688;SDS011;74527;43.224;0.108;2024-02-14T12:16:15;1.67;;;0.70;;
83688;SDS011;74527;43.224;0.108;2024-02-14T12:18:41;0.63;;;0.63;;
83688;SDS011;74527;43.224;0.108;2024-02-14T12:21:07;2.65;;;0.88;;
83688;SDS011;74527;43.224;0.108;2024-02-14T12:23:33;1.65;;;0.70;;
83688;SDS011;74527;43.224;0.108;2024-02-14T12:26:03;1.65;;;0.60;;
83688;SDS011;74527;43.224;0.108;2024-02-14T12:28:30;1.25;;;0.50;;
83688;SDS011;74527;43.224;0.108;2024-02-14T12:30:56;2.50;;;0.60;;
83688;SDS011;74527;43.224;0.108;2024-02-14T12:33:26;2.72;;;0.63;;
83688;SDS011;74527;43.224;0.108;2024-02-14T12:35:56;3.10;;;0.93;;
83688;SDS011;74527;43.224;0.108;2024-02-14T12:38:22;2.97;;;0.80;;
83688;SDS011;74527;43.224;0.108;2024-02-14T12:40:49;1.00;;;0.82;;
83688;SDS011;74527;43.224;0.108;2024-02-14T12:43:16;3.30;;;1.20;;
83688;SDS011;74527;43.224;0.108;2024-02-14T12:45:42;2.55;;;0.60;;
83688;SDS011;74527;43.224;0.108;2024-02-14T12:48:09;1.27;;;1.05;;
83688;SDS011;74527;43.224;0.108;2024-02-14T12:50:36;1.27;;;0.43;;
83688;SDS011;74527;43.224;0.108;2024-02-14T12:53:09;2.95;;;0.55;;
83688;SDS011;74527;43.224;0.108;2024-02-14T12:55:35;1.35;;;0.47;;
83688;SDS011;74527;43.224;0.108;2024-02-14T12:58:01;0.70;;;0.60;;
83688;SDS011;74527;43.224;0.108;2024-02-14T13:00:28;7.97;;;0.68;;
83688;SDS011;74527;43.224;0.108;2024-02-14T13:02:56;0.40;;;0.40;;
83688;SDS011;74527;43.224;0.108;2024-02-14T13:05:23;0.35;;;0.35;;
83688;SDS011;74527;43.224;0.108;2024-02-14T13:07:50;1.37;;;0.60;;
83688;SDS011;74527;43.224;0.108;2024-02-14T13:10:16;0.90;;;0.60;;
83688;SDS011;74527;43.224;0.108;2024-02-14T13:12:43;1.55;;;0.70;;
83688;SDS011;74527;43.224;0.108;2024-02-14T13:15:10;0.75;;;0.40;;
83688;SDS011;74527;43.224;0.108;2024-02-14T13:17:36;1.75;;;0.50;;
83688;SDS011;74527;43.224;0.108;2024-02-14T13:20:03;1.10;;;0.50;;
83688;SDS011;74527;43.224;0.108;2024-02-14T13:22:29;0.30;;;0.30;;
83688;SDS011;74527;43.224;0.108;2024-02-14T13:24:55;0.77;;;0.57;;
83688;SDS011;74527;43.224;0.108;2024-02-14T13:27:21;0.40;;;0.40;;
83688;SDS011;74527;43.224;0.108;2024-02-14T13:29:48;0.43;;;0.40;;
83688;SDS011;74527;43.224;0.108;2024-02-14T13:32:14;0.93;;;0.93;;
83688;SDS011;74527;43.224;0.108;2024-02-14T13:34:41;0.73;;;0.60;;
83688;SDS011;74527;43.224;0.108;2024-02-14T13:37:08;5.63;;;0.45;;
83688;SDS011;74527;43.224;0.108;2024-02-14T13:39:35;0.70;;;0.70;;
83688;SDS011;74527;43.224;0.108;2024-02-14T13:42:01;1.85;;;0.60;;
83688;SDS011;74527;43.224;0.108;2024-02-14T13:44:27;1.42;;;0.50;;
83688;SDS011;74527;43.224;0.108;2024-02-14T13:46:54;0.80;;;0.55;;
83688;SDS011;74527;43.224;0.108;2024-02-14T13:49:20;1.88;;;0.85;;
83688;SDS011;74527;43.224;0.108;2024-02-14T13:51:50;0.95;;;0.40;;
83688;SDS011;74527;43.224;0.108;2024-02-14T13:54:16;2.90;;;0.38;;
83688;SDS011;74527;43.224;0.108;2024-02-14T13:56:43;1.10;;;0.52;;
83688;SDS011;74527;43.224;0.108;2024-02-14T13:59:10;1.75;;;0.80;;
83688;SDS011;74527;43.224;0.108;2024-02-14T14:01:36;1.15;;;1.05;;
83688;SDS011;74527;43.224;0.108;2024-02-14T14:04:02;0.77;;;0.60;;
83688;SDS011;74527;43.224;0.108;2024-02-14T14:06:29;4.03;;;0.60;;
83688;SDS011;74527;43.224;0.108;2024-02-14T14:08:55;0.50;;;0.50;;
83688;SDS011;74527;43.224;0.108;2024-02-14T14:11:21;1.00;;;0.75;;
83688;SDS011;74527;43.224;0.108;2024-02-14T14:13:47;0.60;;;0.60;;
83688;SDS011;74527;43.224;0.108;2024-02-14T14:16:14;3.65;;;1.30;;
83688;SDS011;74527;43.224;0.108;2024-02-14T14:18:40;4.93;;;1.63;;
83688;SDS011;74527;43.224;0.108;2024-02-14T14:21:06;2.53;;;1.30;;
83688;SDS011;74527;43.224;0.108;2024-02-14T14:23:32;2.08;;;1.13;;
83688;SDS011;74527;43.224;0.108;2024-02-14T14:25:59;2.03;;;0.98;;
83688;SDS011;74527;43.224;0.108;2024-02-14T14:28:25;4.82;;;0.80;;
83688;SDS011;74527;43.224;0.108;2024-02-14T14:30:55;0.80;;;0.80;;
83688;SDS011;74527;43.224;0.108;2024-02-14T14:33:22;1.50;;;0.95;;
83688;SDS011;74527;43.224;0.108;2024-02-14T14:35:49;1.00;;;0.70;;
83688;SDS011;74527;43.224;0.108;2024-02-14T14:38:17;0.65;;;0.65;;
83688;SDS011;74527;43.224;0.108;2024-02-14T14:40:43;1.95;;;1.33;;
83688;SDS011;74527;43.224;0.108;2024-02-14T14:43:11;3.90;;;0.88;;
83688;SDS011;74527;43.224;0.108;2024-02-14T14:45:37;1.48;;;0.75;;
83688;SDS011;74527;43.224;0.108;2024-02-14T14:48:03;0.70;;;0.63;;
83688;SDS011;74527;43.224;0.108;2024-02-14T14:50:30;0.85;;;0.80;;